Time;durP1;ratioP1;P1;durP2;ratioP2;P2;SDS_P1;SDS_P2;PMS_P1;PMS_P2;Temp;Humidity;BMP_temperature;BMP_pressure;BME280_temperature;BME280_humidity;BME280_pressure;Samples;Min_cycle;Max_cycle;Signal;HPM_P1;HPM_P2
2021/01/31 00:00:20;;;;;;;0.55;0.55;;;;;;;-3.81;96.29;100065.75;5073664;28;20710;-66
2021/01/31 00:02:47;;;;;;;0.70;0.55;;;;;;;-3.75;95.40;100063.25;5073964;28;20184;-71
2021/01/31 00:05:14;;;;;;;0.52;0.52;;;;;;;-3.85;97.27;100059.25;5074130;28;20299;-67
2021/01/31 00:07:41;;;;;;;9.38;1.75;;;;;;;-3.92;96.02;100058.50;5074051;28;20203;-67
2021/01/31 00:10:09;;;;;;;0.88;0.88;;;;;;;-4.12;96.11;100063.16;5073923;28;20248;-67
2021/01/31 00:12:36;;;;;;;0.65;0.65;;;;;;;-4.16;96.07;100060.19;5073956;28;20199;-67
2021/01/31 00:15:03;;;;;;;1.17;1.08;;;;;;;-4.27;95.69;100055.59;5073565;28;20725;-67
2021/01/31 00:17:29;;;;;;;0.55;0.55;;;;;;;-4.37;95.46;100064.00;5073608;28;20678;-67
2021/01/31 00:19:55;;;;;;;0.73;0.73;;;;;;;-4.43;95.13;100056.94;5073678;28;20233;-67
2021/01/31 00:22:21;;;;;;;0.40;0.40;;;;;;;-4.39;96.14;100065.22;5073773;28;20229;-67
2021/01/31 00:24:53;;;;;;;0.63;0.63;;;;;;;-4.46;96.23;100060.00;5073357;28;20568;-67
2021/01/31 00:27:20;;;;;;;0.50;0.50;;;;;;;-4.50;95.42;100063.31;5073933;28;20196;-67
2021/01/31 00:29:46;;;;;;;3.22;1.52;;;;;;;-4.57;95.30;100066.78;5073507;28;20201;-67
2021/01/31 00:32:12;;;;;;;1.13;1.13;;;;;;;-4.63;95.50;100072.94;5073535;28;20210;-67
2021/01/31 00:34:38;;;;;;;0.50;0.50;;;;;;;-4.64;96.68;100073.97;5073537;28;20199;-67
2021/01/31 00:37:04;;;;;;;0.77;0.70;;;;;;;-4.66;95.74;100077.84;5073200;28;20889;-67
2021/01/31 00:39:30;;;;;;;0.40;0.40;;;;;;;-4.62;96.14;100074.56;5073381;28;20627;-68
2021/01/31 00:41:57;;;;;;;1.02;0.85;;;;;;;-4.65;95.27;100084.72;5073048;28;20718;-67
2021/01/31 00:44:23;;;;;;;0.40;0.40;;;;;;;-4.64;94.70;100073.16;5073451;28;20294;-66
2021/01/31 00:46:49;;;;;;;0.40;0.38;;;;;;;-4.71;95.65;100078.47;5073450;28;20207;-67
2021/01/31 00:49:15;;;;;;;0.40;0.40;;;;;;;-4.58;94.68;100080.22;5073348;28;20199;-66
2021/01/31 00:51:41;;;;;;;0.40;0.30;;;;;;;-4.58;94.95;100077.59;5072912;28;20227;-67
2021/01/31 00:54:07;;;;;;;1.50;1.40;;;;;;;-4.60;94.58;100075.16;5073527;28;20260;-67
2021/01/31 00:56:33;;;;;;;0.77;0.77;;;;;;;-4.63;94.29;100082.69;5073215;28;20207;-67
2021/01/31 00:59:00;;;;;;;0.40;0.30;;;;;;;-4.74;95.34;100081.53;5072888;28;20203;-67
2021/01/31 01:01:26;;;;;;;0.40;0.30;;;;;;;-4.87;95.52;100074.53;5072749;28;20725;-67
2021/01/31 01:03:52;;;;;;;0.50;0.50;;;;;;;-4.86;94.20;100072.69;5073179;28;20276;-67
2021/01/31 01:06:18;;;;;;;0.40;0.30;;;;;;;-4.79;93.68;100072.63;5073155;28;20620;-67
2021/01/31 01:08:44;;;;;;;1.90;1.50;;;;;;;-4.68;93.29;100069.34;5072788;28;20699;-68
2021/01/31 01:11:10;;;;;;;0.40;0.40;;;;;;;-4.65;93.12;100068.88;5073047;28;20245;-66
2021/01/31 01:13:36;;;;;;;1.13;1.02;;;;;;;-4.74;94.22;100072.81;5073024;28;20207;-68
2021/01/31 01:16:04;;;;;;;0.80;0.60;;;;;;;-4.91;94.22;100073.34;5073048;28;20224;-67
2021/01/31 01:18:31;;;;;;;5.30;1.98;;;;;;;-5.03;94.92;100066.28;5072995;28;20627;-67
2021/01/31 01:20:57;;;;;;;0.40;0.30;;;;;;;-5.04;96.06;100076.06;5072469;28;20635;-67
2021/01/31 01:23:23;;;;;;;0.50;0.50;;;;;;;-5.11;95.51;100062.06;5072974;28;20603;-67
2021/01/31 01:25:50;;;;;;;0.40;0.30;;;;;;;-4.97;94.48;100071.53;5072617;28;20586;-68
2021/01/31 01:28:16;;;;;;;0.40;0.40;;;;;;;-5.09;93.87;100073.22;5072626;28;20699;-67
2021/01/31 01:30:42;;;;;;;0.40;0.30;;;;;;;-5.12;95.93;100071.81;5072522;28;20606;-68
2021/01/31 01:33:09;;;;;;;0.43;0.43;;;;;;;-5.19;96.15;100078.13;5072599;28;20564;-67
2021/01/31 01:35:35;;;;;;;0.40;0.30;;;;;;;-5.23;97.06;100076.94;5072899;28;20206;-67
2021/01/31 01:38:01;;;;;;;0.40;0.30;;;;;;;-5.17;97.46;100081.41;5072881;28;20207;-67
2021/01/31 01:40:31;;;;;;;0.40;0.40;;;;;;;-5.04;96.90;100076.06;5072829;28;20237;-67
2021/01/31 01:42:57;;;;;;;0.40;0.40;;;;;;;-5.07;96.64;100069.34;5072852;28;20221;-67
2021/01/31 01:45:26;;;;;;;0.40;0.30;;;;;;;-5.03;95.74;100066.28;5072834;28;20256;-67
2021/01/31 01:47:57;;;;;;;0.40;0.40;;;;;;;-4.92;94.97;100069.06;5072887;28;20275;-67
2021/01/31 01:50:29;;;;;;;0.40;0.30;;;;;;;-4.90;94.60;100069.66;5072585;28;20229;-67
2021/01/31 01:52:58;;;;;;;0.40;0.30;;;;;;;-4.97;93.61;100071.53;5073340;28;20657;-67
2021/01/31 01:55:26;;;;;;;0.40;0.40;;;;;;;-5.13;94.80;100075.47;5076434;28;20677;-67
2021/01/31 01:57:58;;;;;;;0.52;0.52;;;;;;;-5.22;94.79;100068.84;5076273;28;20214;-68
2021/01/31 02:00:25;;;;;;;0.45;0.45;;;;;;;-5.04;94.34;100064.69;5076036;28;20701;-68
2021/01/31 02:02:56;;;;;;;0.88;0.80;;;;;;;-4.96;93.51;100064.41;5076474;28;20293;-67
2021/01/31 02:05:22;;;;;;;0.40;0.30;;;;;;;-5.01;93.20;100064.25;5076127;28;20595;-67
2021/01/31 02:07:50;;;;;;;1.48;1.20;;;;;;;-5.23;93.69;100064.53;5076274;28;20478;-68
2021/01/31 02:10:19;;;;;;;3.83;1.02;;;;;;;-5.23;94.36;100066.38;5076610;28;20222;-67
2021/01/31 02:12:46;;;;;;;1.63;1.52;;;;;;;-5.29;94.87;100067.22;5075868;28;20674;-68
2021/01/31 02:15:15;;;;;;;0.40;0.40;;;;;;;-5.16;93.94;100061.88;5076186;28;20289;-67
2021/01/31 02:17:52;;;;;;;2.67;2.05;;;;;;;-5.15;93.16;100061.66;5076103;28;20203;-67
2021/01/31 02:20:49;;;;;;;0.70;0.65;;;;;;;-5.07;93.01;100057.97;5075735;28;20697;-67
2021/01/31 02:23:44;;;;;;;1.20;0.95;;;;;;;-5.20;92.97;100058.84;5076043;28;20248;-67
2021/01/31 02:26:12;;;;;;;0.40;0.30;;;;;;;-5.40;93.26;100061.59;5076024;28;20188;-67
2021/01/31 02:28:59;;;;;;;3.80;1.13;;;;;;;-5.44;93.12;100073.59;5075639;28;20207;-68
2021/01/31 02:31:42;;;;;;;0.60;0.60;;;;;;;-5.57;92.08;100064.91;5076241;28;20219;-67
2021/01/31 02:34:15;;;;;;;0.40;0.30;;;;;;;-5.66;93.79;100061.69;5075904;28;20187;-67
2021/01/31 02:36:52;;;;;;;0.40;0.30;;;;;;;-5.61;94.80;100072.44;5076263;28;20187;-67
2021/01/31 02:39:35;;;;;;;0.40;0.30;;;;;;;-5.75;93.32;100065.59;5078185;28;20191;-66
2021/01/31 02:42:14;;;;;;;0.40;0.30;;;;;;;-5.87;92.23;100068.84;5075478;28;20642;-66
2021/01/31 02:44:43;;;;;;;0.40;0.30;;;;;;;-6.00;92.33;100074.16;5075611;28;20187;-67
2021/01/31 02:47:16;;;;;;;0.40;0.40;;;;;;;-6.05;91.63;100073.16;5075645;28;20214;-67
2021/01/31 02:49:50;;;;;;;0.40;0.30;;;;;;;-6.10;91.40;100077.22;5075032;28;20184;-67
2021/01/31 02:52:21;;;;;;;1.63;1.55;;;;;;;-6.12;92.39;100067.88;5075314;28;20570;-67
2021/01/31 02:54:54;;;;;;;0.68;0.68;;;;;;;-6.08;91.89;100068.28;5075490;28;20245;-66
2021/01/31 02:57:25;;;;;;;1.27;1.17;;;;;;;-6.19;92.44;100069.75;5075486;28;20187;-67
2021/01/31 02:59:57;;;;;;;0.40;0.30;;;;;;;-6.17;93.35;100070.34;5074983;28;20636;-67
2021/01/31 03:02:31;;;;;;;0.40;0.30;;;;;;;-6.21;92.66;100069.13;5075123;28;20654;-67
2021/01/31 03:05:02;;;;;;;0.40;0.40;;;;;;;-6.19;92.93;100069.75;5073797;28;20772;-67
2021/01/31 03:07:32;;;;;;;0.60;0.60;;;;;;;-6.16;93.37;100062.22;5075045;28;20194;-67
2021/01/31 03:10:02;;;;;;;0.40;0.30;;;;;;;-6.12;92.12;100059.97;5075197;28;20227;-71
2021/01/31 03:12:34;;;;;;;0.40;0.30;;;;;;;-6.18;91.89;100058.19;5075296;28;20188;-71
2021/01/31 03:15:06;;;;;;;0.75;0.75;;;;;;;-6.21;91.65;100064.66;5074948;28;20642;-68
2021/01/31 03:17:38;;;;;;;3.20;1.50;;;;;;;-6.25;92.88;100073.16;5075052;28;20220;-68
2021/01/31 03:20:08;;;;;;;0.50;0.50;;;;;;;-6.28;92.38;100070.97;5075922;28;20698;-68
2021/01/31 03:22:39;;;;;;;2.25;1.35;;;;;;;-6.22;91.45;100076.22;5074786;28;20557;-68
2021/01/31 03:25:10;;;;;;;0.40;0.40;;;;;;;-6.35;91.34;100077.03;5074707;28;20188;-68
2021/01/31 03:27:39;;;;;;;0.40;0.30;;;;;;;-6.41;92.03;100082.31;5075241;28;20183;-65
2021/01/31 03:30:08;;;;;;;0.40;0.30;;;;;;;-6.35;91.86;100077.03;5074607;28;20763;-68
2021/01/31 03:32:40;;;;;;;0.40;0.30;;;;;;;-6.44;92.31;100085.34;5074705;28;20199;-68
2021/01/31 03:35:10;;;;;;;0.50;0.30;;;;;;;-6.41;93.58;100085.75;5074881;28;20232;-68
2021/01/31 03:37:44;;;;;;;1.27;1.20;;;;;;;-6.29;93.77;100087.75;5075018;28;20203;-68
2021/01/31 03:40:13;;;;;;;0.82;0.82;;;;;;;-6.33;93.66;100089.19;5074606;28;20238;-68
2021/01/31 03:42:39;;;;;;;0.43;0.40;;;;;;;-6.24;93.72;100086.16;5074264;28;20271;-69
2021/01/31 03:45:08;;;;;;;0.40;0.40;;;;;;;-6.18;93.14;100095.06;5074928;28;20252;-68
2021/01/31 03:47:42;;;;;;;1.60;0.93;;;;;;;-6.14;92.92;100091.81;5074228;28;20670;-68
2021/01/31 03:50:09;;;;;;;0.40;0.40;;;;;;;-6.19;92.93;100090.81;5074068;28;20230;-68
2021/01/31 03:52:36;;;;;;;1.50;0.88;;;;;;;-6.25;93.31;100096.88;5074179;28;20207;-68
2021/01/31 03:55:03;;;;;;;0.50;0.40;;;;;;;-6.36;93.04;100085.97;5074490;28;20252;-68
2021/01/31 03:57:34;;;;;;;1.50;1.40;;;;;;;-6.45;92.81;100095.06;5074331;28;20195;-68
2021/01/31 04:00:05;;;;;;;0.93;0.85;;;;;;;-6.45;92.98;100084.53;5074113;28;20234;-68
2021/01/31 04:02:35;;;;;;;0.40;0.40;;;;;;;-6.44;92.89;100091.41;5074237;28;20187;-68
2021/01/31 04:05:04;;;;;;;0.50;0.45;;;;;;;-6.40;92.64;100091.84;5073778;28;20674;-69
2021/01/31 04:07:34;;;;;;;0.50;0.40;;;;;;;-6.36;92.74;100088.59;5073996;28;20294;-68
2021/01/31 04:10:01;;;;;;;0.40;0.30;;;;;;;-6.54;91.06;100083.13;5073683;28;20314;-67
2021/01/31 04:12:32;;;;;;;1.38;1.25;;;;;;;-6.64;91.13;100075.63;5073656;28;20678;-68
2021/01/31 04:15:03;;;;;;;0.40;0.30;;;;;;;-6.65;90.63;100075.78;5073939;28;20213;-68
2021/01/31 04:17:29;;;;;;;0.40;0.30;;;;;;;-6.67;89.46;100077.84;5073306;28;20193;-68
2021/01/31 04:19:55;;;;;;;0.40;0.32;;;;;;;-6.78;89.93;100070.50;5074411;28;20223;-68
2021/01/31 04:22:21;;;;;;;0.65;0.65;;;;;;;-6.68;90.57;100069.13;5075915;28;20579;-67
2021/01/31 04:24:48;;;;;;;1.10;0.98;;;;;;;-6.78;90.49;100065.25;5073788;28;20233;-68
2021/01/31 04:27:15;;;;;;;0.40;0.30;;;;;;;-6.77;91.14;100069.50;5073718;28;20617;-68
2021/01/31 04:29:41;;;;;;;2.80;2.60;;;;;;;-6.83;90.45;100055.31;5073272;28;20211;-68
2021/01/31 04:32:07;;;;;;;0.40;0.30;;;;;;;-6.80;89.99;100069.91;5073637;28;20275;-67
2021/01/31 04:34:34;;;;;;;1.15;1.05;;;;;;;-6.78;91.10;100065.25;5073529;28;20209;-67
2021/01/31 04:37:00;;;;;;;0.40;0.30;;;;;;;-6.72;91.27;100064.47;5073562;28;20199;-67
2021/01/31 04:39:26;;;;;;;0.40;0.40;;;;;;;-6.74;91.33;100058.56;5073222;28;20595;-67
2021/01/31 04:41:53;;;;;;;0.40;0.30;;;;;;;-6.75;90.30;100059.59;5073252;28;20269;-67
2021/01/31 04:44:21;;;;;;;0.40;0.30;;;;;;;-6.73;89.53;100063.66;5073437;28;20207;-68
2021/01/31 04:46:50;;;;;;;0.40;0.30;;;;;;;-6.81;90.79;100063.03;5073370;28;20203;-68
2021/01/31 04:49:35;;;;;;;0.40;0.30;;;;;;;-6.88;91.97;100069.09;5073309;28;20199;-67
2021/01/31 04:52:21;;;;;;;0.40;0.30;;;;;;;-6.88;91.19;100069.09;5073374;28;20194;-67
2021/01/31 04:55:15;;;;;;;0.40;0.40;;;;;;;-6.90;91.11;100068.50;5073092;28;20187;-68
2021/01/31 04:57:45;;;;;;;0.50;0.30;;;;;;;-6.83;92.52;100070.31;5073016;28;20251;-66
2021/01/31 05:00:18;;;;;;;0.40;0.40;;;;;;;-6.86;92.96;100080.25;5073347;28;20639;-67
2021/01/31 05:02:48;;;;;;;0.40;0.30;;;;;;;-6.72;93.06;100069.72;5073395;28;20198;-68
2021/01/31 05:05:19;;;;;;;0.93;0.93;;;;;;;-6.77;91.74;100070.34;5073124;28;20691;-66
2021/01/31 05:07:51;;;;;;;0.40;0.30;;;;;;;-6.88;91.19;100071.72;5073252;28;20672;-67
2021/01/31 05:10:17;;;;;;;0.40;0.30;;;;;;;-6.81;90.78;100073.56;5073335;28;20231;-67
2021/01/31 05:12:58;;;;;;;2.45;1.25;;;;;;;-7.04;89.56;100066.81;5073184;28;20206;-68
2021/01/31 05:15:27;;;;;;;0.43;0.43;;;;;;;-7.03;89.72;100072.91;5073167;28;20191;-67
2021/01/31 05:17:55;;;;;;;0.40;0.30;;;;;;;-6.91;89.25;100079.19;5073238;28;20218;-67
2021/01/31 05:20:23;;;;;;;2.25;2.15;;;;;;;-6.88;88.89;100082.25;5073098;28;20227;-67
2021/01/31 05:22:52;;;;;;;0.47;0.47;;;;;;;-6.92;89.12;100088.09;5072985;28;20206;-68
2021/01/31 05:25:21;;;;;;;0.40;0.30;;;;;;;-6.93;89.65;100086.50;5073038;28;20199;-67
2021/01/31 05:27:53;;;;;;;0.40;0.40;;;;;;;-7.04;90.62;100081.78;5073429;28;20202;-67
2021/01/31 05:30:19;;;;;;;0.40;0.30;;;;;;;-6.97;90.23;100093.16;5077261;28;20223;-67
2021/01/31 05:33:05;;;;;;;0.40;0.40;;;;;;;-6.91;89.40;100095.78;5077039;28;20209;-68
2021/01/31 05:35:34;;;;;;;4.20;1.88;;;;;;;-7.00;89.21;100098.81;5076780;28;20705;-67
2021/01/31 05:38:01;;;;;;;2.38;2.17;;;;;;;-7.12;89.68;100096.78;5076939;28;20206;-67
2021/01/31 05:40:31;;;;;;;1.30;1.20;;;;;;;-7.23;90.19;100091.25;5076522;28;20241;-67
2021/01/31 05:42:59;;;;;;;0.50;0.50;;;;;;;-7.09;89.68;100098.19;5076840;28;20194;-67
2021/01/31 05:45:32;;;;;;;0.40;0.30;;;;;;;-6.97;89.33;100095.78;5076786;28;20209;-67
2021/01/31 05:47:59;;;;;;;0.40;0.30;;;;;;;-7.06;90.32;100092.53;5076531;28;20191;-67
2021/01/31 05:50:34;;;;;;;0.40;0.30;;;;;;;-7.14;89.39;100097.97;5076383;28;20254;-67
2021/01/31 05:53:22;;;;;;;0.40;0.40;;;;;;;-7.07;89.60;100098.00;5076415;28;20189;-66
2021/01/31 05:55:48;;;;;;;0.40;0.30;;;;;;;-6.93;88.74;100097.81;5076654;28;20266;-67
2021/01/31 05:58:17;;;;;;;1.20;1.20;;;;;;;-6.93;88.32;100097.81;5076631;28;20213;-67
2021/01/31 06:00:45;;;;;;;0.40;0.30;;;;;;;-6.98;88.01;100102.88;5076368;28;20234;-67
2021/01/31 06:03:12;;;;;;;0.82;0.82;;;;;;;-6.97;89.16;100112.41;5077656;28;20203;-67
2021/01/31 06:05:39;;;;;;;0.40;0.40;;;;;;;-7.09;89.72;100108.72;5077554;28;20203;-67
2021/01/31 06:08:08;;;;;;;0.40;0.30;;;;;;;-7.17;90.03;100106.25;5076342;28;20203;-66
2021/01/31 06:10:36;;;;;;;0.60;0.60;;;;;;;-7.17;90.19;100108.88;5076320;28;20215;-67
2021/01/31 06:13:05;;;;;;;0.40;0.30;;;;;;;-7.07;91.12;100109.34;5076275;28;20206;-67
2021/01/31 06:15:40;;;;;;;0.77;0.77;;;;;;;-6.88;90.62;100111.19;5076166;28;20203;-67
2021/01/31 06:18:12;;;;;;;0.40;0.40;;;;;;;-6.89;91.77;100111.41;5076116;28;20194;-67
2021/01/31 06:20:40;;;;;;;0.50;0.40;;;;;;;-6.73;91.73;100123.38;5075692;28;20751;-67
2021/01/31 06:23:17;;;;;;;0.40;0.30;;;;;;;-6.66;91.17;100126.84;5076015;28;20210;-67
2021/01/31 06:25:43;;;;;;;0.40;0.40;;;;;;;-6.54;90.79;100127.09;5075788;28;20186;-67
2021/01/31 06:28:16;;;;;;;0.77;0.77;;;;;;;-6.64;91.68;100128.28;5075645;28;20206;-67
2021/01/31 06:30:50;;;;;;;0.40;0.40;;;;;;;-6.69;91.87;100128.03;5075591;28;20219;-67
2021/01/31 06:33:17;;;;;;;0.40;0.35;;;;;;;-6.70;91.99;100129.06;5075966;28;20191;-67
2021/01/31 06:35:43;;;;;;;0.40;0.30;;;;;;;-6.77;92.81;100123.00;5075866;28;20309;-67
2021/01/31 06:38:22;;;;;;;0.40;0.40;;;;;;;-6.73;93.83;100124.22;5075776;28;20203;-67
2021/01/31 06:41:02;;;;;;;0.40;0.40;;;;;;;-6.74;93.25;100137.56;5075631;28;20227;-68
2021/01/31 06:43:41;;;;;;;0.40;0.30;;;;;;;-6.64;93.65;100132.72;5075776;28;20191;-67
2021/01/31 06:46:17;;;;;;;0.47;0.45;;;;;;;-6.74;91.91;100127.03;5075721;28;20248;-67
2021/01/31 06:48:57;;;;;;;0.40;0.30;;;;;;;-6.61;91.96;100140.22;5075309;28;20191;-67
2021/01/31 06:51:38;;;;;;;1.15;0.60;;;;;;;-6.68;91.78;100136.78;5075134;28;20222;-66
2021/01/31 06:54:24;;;;;;;0.40;0.30;;;;;;;-6.65;92.04;100133.72;5075511;28;20269;-69
2021/01/31 06:57:03;;;;;;;0.40;0.40;;;;;;;-6.58;90.42;100141.66;5075523;28;20202;-68
2021/01/31 06:59:54;;;;;;;0.40;0.40;;;;;;;-6.59;91.47;100147.94;5075486;28;20187;-67
2021/01/31 07:02:58;;;;;;;0.40;0.30;;;;;;;-6.46;92.26;100150.56;5075095;28;20713;-68
2021/01/31 07:05:43;;;;;;;0.40;0.30;;;;;;;-6.55;90.48;100151.78;5073180;28;20217;-70
2021/01/31 07:08:27;;;;;;;0.40;0.30;;;;;;;-6.67;89.59;100148.94;5075595;28;20187;-70
2021/01/31 07:11:07;;;;;;;0.40;0.40;;;;;;;-6.77;90.73;100151.13;5075241;28;20341;-71
2021/01/31 07:13:46;;;;;;;0.40;0.38;;;;;;;-6.86;89.86;100146.06;5074922;28;20627;-71
2021/01/31 07:16:28;;;;;;;0.43;0.43;;;;;;;-6.78;90.51;100152.13;5075189;28;20260;-70
2021/01/31 07:19:01;;;;;;;0.60;0.60;;;;;;;-6.80;91.43;100141.81;5075120;28;20657;-71
2021/01/31 07:21:33;;;;;;;0.57;0.55;;;;;;;-6.71;93.01;100147.69;5074820;28;20232;-70
2021/01/31 07:24:02;;;;;;;0.40;0.40;;;;;;;-6.60;91.09;100144.47;5075061;28;20226;-71
2021/01/31 07:26:35;;;;;;;0.50;0.50;;;;;;;-6.58;89.93;100153.00;5074902;28;20217;-70
2021/01/31 07:29:07;;;;;;;0.88;0.82;;;;;;;-6.57;89.72;100154.63;5074878;28;20195;-71
2021/01/31 07:31:45;;;;;;;2.17;0.82;;;;;;;-6.58;88.81;100162.72;5074475;28;20603;-70
2021/01/31 07:34:17;;;;;;;0.40;0.30;;;;;;;-6.62;89.52;100151.78;5074816;28;20187;-70
2021/01/31 07:36:55;;;;;;;0.40;0.40;;;;;;;-6.69;89.38;100149.09;5074752;28;20252;-70
2021/01/31 07:39:26;;;;;;;0.40;0.35;;;;;;;-6.53;89.42;100150.56;5074717;28;20187;-70
2021/01/31 07:41:54;;;;;;;0.40;0.40;;;;;;;-6.37;89.65;100144.94;5074142;28;20234;-69
2021/01/31 07:44:26;;;;;;;1.10;0.80;;;;;;;-6.39;89.90;100152.22;5074277;28;20741;-68
2021/01/31 07:46:56;;;;;;;0.40;0.38;;;;;;;-6.53;90.52;100152.41;5075656;28;20647;-68
2021/01/31 07:49:22;;;;;;;0.70;0.70;;;;;;;-6.43;91.52;100145.72;5074443;28;20252;-68
2021/01/31 07:52:09;;;;;;;0.40;0.30;;;;;;;-6.24;91.71;100152.03;5073226;28;20223;-68
2021/01/31 07:54:37;;;;;;;4.15;1.20;;;;;;;-6.24;91.00;100159.09;5074395;28;20187;-68
2021/01/31 07:57:28;;;;;;;0.40;0.30;;;;;;;-6.12;91.34;100157.50;5074232;28;20211;-68
2021/01/31 07:59:55;;;;;;;0.50;0.50;;;;;;;-5.95;90.66;100157.91;5074040;28;20223;-70
2021/01/31 08:02:37;;;;;;;0.60;0.60;;;;;;;-5.85;91.62;100158.28;5074258;28;20227;-70
2021/01/31 08:05:05;;;;;;;0.40;0.30;;;;;;;-5.76;91.54;100162.31;5074273;28;20203;-72
2021/01/31 08:08:01;;;;;;;1.30;1.23;;;;;;;-5.80;91.79;100162.94;5073889;28;20205;-72
2021/01/31 08:10:45;;;;;;;1.15;1.15;;;;;;;-5.86;92.63;100167.19;5074065;28;20226;-71
2021/01/31 08:13:32;;;;;;;0.40;0.40;;;;;;;-5.70;92.80;100166.00;5074045;28;20188;-71
2021/01/31 08:15:58;;;;;;;0.93;0.93;;;;;;;-5.68;94.21;100156.84;5073969;28;20190;-71
2021/01/31 08:18:25;;;;;;;0.40;0.30;;;;;;;-5.51;94.02;100162.50;5074031;28;20210;-70
2021/01/31 08:20:53;;;;;;;1.95;1.85;;;;;;;-5.35;93.97;100148.88;5073547;28;20682;-71
2021/01/31 08:23:53;;;;;;;0.40;0.30;;;;;;;-5.25;93.42;100152.91;5074051;28;20214;-71
2021/01/31 08:26:43;;;;;;;0.40;0.30;;;;;;;-5.22;93.65;100163.03;5074136;28;20183;-71
2021/01/31 08:29:31;;;;;;;0.40;0.30;;;;;;;-5.17;93.15;100165.88;5073894;28;20207;-71
2021/01/31 08:32:11;;;;;;;0.40;0.30;;;;;;;-5.00;93.40;100171.47;5070385;28;20203;-71
2021/01/31 08:35:25;;;;;;;0.40;0.40;;;;;;;-4.97;93.22;100171.06;5073652;28;20662;-71
2021/01/31 08:38:12;;;;;;;0.40;0.30;;;;;;;-4.79;93.06;100179.09;5073364;28;20248;-71
2021/01/31 08:40:38;;;;;;;1.45;0.93;;;;;;;-4.62;93.20;100174.16;5073348;28;20243;-71
2021/01/31 08:43:08;;;;;;;0.40;0.30;;;;;;;-4.45;93.18;100175.28;5073461;28;20199;-71
2021/01/31 08:45:46;;;;;;;1.33;1.30;;;;;;;-4.29;93.55;100183.69;5073552;28;20213;-71
2021/01/31 08:48:26;;;;;;;2.45;2.25;;;;;;;-4.19;93.42;100178.78;5073216;28;20335;-71
2021/01/31 08:51:03;;;;;;;0.40;0.30;;;;;;;-4.08;93.48;100184.16;5072976;28;20242;-71
2021/01/31 08:53:30;;;;;;;1.45;1.35;;;;;;;-4.07;94.64;100177.88;5073109;28;20575;-70
2021/01/31 08:56:12;;;;;;;0.98;0.70;;;;;;;-4.03;94.02;100177.41;5073402;28;20210;-70
2021/01/31 08:58:39;;;;;;;0.40;0.30;;;;;;;-4.03;94.25;100172.13;5073300;28;20194;-72
2021/01/31 09:01:06;;;;;;;0.40;0.40;;;;;;;-3.89;94.68;100179.75;5073053;28;20223;-70
2021/01/31 09:03:33;;;;;;;0.55;0.55;;;;;;;-3.75;94.72;100177.00;5073198;28;20207;-72
2021/01/31 09:05:59;;;;;;;0.40;0.30;;;;;;;-3.67;94.88;100177.53;5072859;28;20281;-69
2021/01/31 09:08:26;;;;;;;0.40;0.40;;;;;;;-3.53;94.87;100180.06;5073185;28;20203;-68
2021/01/31 09:10:54;;;;;;;0.40;0.32;;;;;;;-3.37;94.51;100184.78;5073016;28;20215;-69
2021/01/31 09:13:27;;;;;;;0.98;0.88;;;;;;;-3.26;94.44;100183.25;5073072;28;20205;-68
2021/01/31 09:15:54;;;;;;;0.77;0.77;;;;;;;-3.19;94.25;100183.97;5073091;28;20284;-69
2021/01/31 09:18:23;;;;;;;0.40;0.30;;;;;;;-3.12;94.45;100185.53;5073061;28;20203;-69
2021/01/31 09:20:50;;;;;;;0.40;0.30;;;;;;;-3.07;94.30;100182.22;5074256;28;20231;-69
2021/01/31 09:23:24;;;;;;;0.90;0.90;;;;;;;-3.01;94.40;100181.34;5073047;28;20209;-68
2021/01/31 09:25:50;;;;;;;0.40;0.30;;;;;;;-2.92;94.81;100182.66;5073028;28;20183;-70
2021/01/31 09:28:20;;;;;;;0.60;0.57;;;;;;;-2.82;94.15;100180.28;5073026;28;20213;-69
2021/01/31 09:30:49;;;;;;;0.40;0.30;;;;;;;-2.74;93.36;100181.81;5073993;28;20295;-71
2021/01/31 09:33:23;;;;;;;0.40;0.40;;;;;;;-2.68;93.45;100186.22;5072575;28;20442;-70
2021/01/31 09:35:49;;;;;;;0.40;0.30;;;;;;;-2.60;93.80;100183.25;5072467;28;20676;-70
2021/01/31 09:38:23;;;;;;;0.40;0.30;;;;;;;-2.53;93.65;100191.13;5072851;28;20201;-69
2021/01/31 09:40:53;;;;;;;0.40;0.30;;;;;;;-2.47;93.18;100194.72;5072757;28;20226;-68
2021/01/31 09:43:23;;;;;;;0.60;0.60;;;;;;;-2.43;93.38;100194.06;5072833;28;20281;-69
2021/01/31 09:45:53;;;;;;;3.05;0.93;;;;;;;-2.38;93.01;100194.19;5072786;28;20535;-70
2021/01/31 09:48:22;;;;;;;0.40;0.30;;;;;;;-2.32;92.46;100192.47;5072735;28;20207;-69
2021/01/31 09:50:54;;;;;;;0.65;0.65;;;;;;;-2.28;92.53;100202.41;5072216;28;20899;-70
2021/01/31 09:53:28;;;;;;;0.77;0.77;;;;;;;-2.21;92.61;100204.97;5072740;28;20199;-69
2021/01/31 09:55:54;;;;;;;0.75;0.75;;;;;;;-2.13;92.01;100209.94;5072510;28;20204;-76
2021/01/31 09:58:24;;;;;;;0.40;0.30;;;;;;;-1.99;92.31;100207.91;5072573;28;20620;-71
2021/01/31 10:00:52;;;;;;;0.70;0.70;;;;;;;-1.98;91.99;100204.22;5072639;28;20641;-72
2021/01/31 10:03:27;;;;;;;1.43;0.63;;;;;;;-1.84;91.88;100207.47;5072383;28;20214;-72
2021/01/31 10:06:12;;;;;;;0.50;0.50;;;;;;;-1.76;91.95;100199.19;5071145;28;20437;-69
2021/01/31 10:08:41;;;;;;;2.20;1.43;;;;;;;-1.69;91.01;100205.16;5071063;28;20200;-74
2021/01/31 10:11:31;;;;;;;1.70;0.70;;;;;;;-1.67;90.11;100203.09;5052391;28;20459;-70
2021/01/31 10:13:59;;;;;;;0.40;0.30;;;;;;;-1.61;90.65;100204.03;5060908;28;20278;-70
2021/01/31 10:16:29;;;;;;;0.40;0.30;;;;;;;-1.59;89.56;100199.31;5056242;28;20211;-70
2021/01/31 10:19:08;;;;;;;0.40;0.30;;;;;;;-1.48;89.01;100201.13;5056229;28;20192;-71
2021/01/31 10:21:35;;;;;;;0.50;0.40;;;;;;;-1.44;88.59;100189.03;5056440;28;20233;-70
2021/01/31 10:24:05;;;;;;;0.40;0.40;;;;;;;-1.36;88.73;100193.19;5055676;28;20200;-70
2021/01/31 10:26:32;;;;;;;0.40;0.30;;;;;;;-1.32;87.87;100189.81;5055766;28;20192;-69
2021/01/31 10:29:01;;;;;;;1.33;0.87;;;;;;;-1.27;87.77;100187.28;5055803;28;20471;-70
2021/01/31 10:31:31;;;;;;;0.40;0.30;;;;;;;-1.19;88.01;100186.13;5056179;28;20518;-69
2021/01/31 10:33:58;;;;;;;0.40;0.30;;;;;;;-1.23;87.28;100184.97;5055813;28;20287;-69
2021/01/31 10:36:32;;;;;;;0.40;0.30;;;;;;;-1.16;87.79;100188.28;5056186;28;20365;-69
2021/01/31 10:39:01;;;;;;;0.40;0.30;;;;;;;-1.06;87.61;100177.91;5056155;28;20422;-71
2021/01/31 10:41:28;;;;;;;2.72;0.77;;;;;;;-1.00;86.83;100186.78;5055602;28;20720;-69
2021/01/31 10:44:01;;;;;;;0.83;0.53;;;;;;;-0.93;86.17;100186.63;5056053;28;20210;-69
2021/01/31 10:46:28;;;;;;;0.40;0.30;;;;;;;-0.94;85.36;100187.69;5056332;28;20430;-69
2021/01/31 10:48:54;;;;;;;0.40;0.30;;;;;;;-0.82;85.14;100186.59;5055942;28;20499;-68
2021/01/31 10:51:20;;;;;;;2.50;1.57;;;;;;;-0.74;85.30;100185.44;5055469;28;20470;-69
2021/01/31 10:53:46;;;;;;;0.40;0.30;;;;;;;-0.62;85.40;100193.34;5055397;28;20466;-70
2021/01/31 10:56:12;;;;;;;0.50;0.43;;;;;;;-0.51;85.09;100182.69;5056111;28;20450;-69
2021/01/31 10:58:40;;;;;;;0.80;0.80;;;;;;;-0.48;84.22;100180.59;5055650;28;20497;-69
2021/01/31 11:01:07;;;;;;;0.40;0.30;;;;;;;-0.34;83.92;100188.06;5055871;28;20554;-68
2021/01/31 11:03:33;;;;;;;0.40;0.30;;;;;;;-0.31;82.21;100184.09;5055929;28;20456;-69
2021/01/31 11:05:59;;;;;;;0.40;0.30;;;;;;;-0.16;82.36;100180.91;5055751;28;20448;-68
2021/01/31 11:08:25;;;;;;;4.83;1.40;;;;;;;-0.09;80.80;100181.53;5055611;28;20442;-69
2021/01/31 11:10:53;;;;;;;0.40;0.30;;;;;;;0.01;80.58;100179.06;5055589;28;20507;-68
2021/01/31 11:13:19;;;;;;;3.70;1.03;;;;;;;0.14;81.48;100175.28;5055822;28;20442;-68
2021/01/31 11:15:45;;;;;;;0.50;0.37;;;;;;;0.24;80.59;100175.44;5055517;28;20473;-68
2021/01/31 11:18:12;;;;;;;0.40;0.30;;;;;;;0.25;79.93;100171.72;5055309;28;20426;-68
2021/01/31 11:20:38;;;;;;;0.90;0.50;;;;;;;0.36;79.85;100172.69;5055404;28;20509;-68
2021/01/31 11:23:04;;;;;;;0.40;0.30;;;;;;;0.35;77.14;100163.06;5055306;28;20467;-68
2021/01/31 11:25:30;;;;;;;0.40;0.30;;;;;;;0.47;78.00;100164.59;5054314;28;20439;-66
2021/01/31 11:27:56;;;;;;;0.40;0.40;;;;;;;0.69;78.90;100161.16;5055816;28;20445;-68
2021/01/31 11:30:23;;;;;;;0.40;0.30;;;;;;;0.74;75.68;100167.34;5054428;28;20464;-68
2021/01/31 11:32:49;;;;;;;0.40;0.30;;;;;;;0.77;74.47;100162.59;5063289;28;20966;-67
2021/01/31 11:35:16;;;;;;;0.90;0.80;;;;;;;1.11;74.60;100161.44;5074865;28;20801;-66
2021/01/31 11:37:42;;;;;;;0.57;0.50;;;;;;;1.55;73.54;100169.41;5074809;28;20445;-66
2021/01/31 11:40:09;;;;;;;0.40;0.40;;;;;;;2.33;73.73;100171.66;5074625;28;20835;-67
2021/01/31 11:42:36;;;;;;;0.40;0.37;;;;;;;3.14;71.51;100169.41;5074257;28;21004;-66
2021/01/31 11:45:03;;;;;;;0.40;0.30;;;;;;;4.02;67.64;100173.88;5074570;28;20446;-66